ダーウィン の空港の天気 - METARとTAF

ダーウィン国際空港 ( YPDN / DRW ) - オーストラリア ノーザンテリトリーダーウィン
飛行場実況気象(Metar)
観測時間10/16 17:00 ACST (10/16 07:30 UTC)
風向・風速西北西 7m/s
視程10km以上
天気現象
なし
気温30℃
湿度55%
気圧1009hPa
METARYPDN 160730Z 29013KT 9999 1500NE FU NSC 30/20 Q1009 NOSIG
過去の天気等 Google飛行場航空写真 Wunderground天気予報

過去48時間のMETAR

飛行場予報(TAF)
発表時間: 10/16 14:36 ACST (10/16 05:06 UTC)
予報対象時間: 16日15時 ACST ~ 17日21時 ACST
風向・風速北西 7m/s
視程10km以上
天気現象
少しの雲 雲底高度 1220m
16日19時 ACST から
風向・風速西 3m/s
視程10km以上
なし
17日0時 ACST から
風向・風速不定 2m/s
視程10km以上
全天の4割程度の雲 雲底高度 460m
17日11時 ACST から
風向・風速北西 7m/s
視程10km以上
少しの雲 雲底高度 1220m
TAF AMD YPDN 160506Z 1606/1712 32014KT 9999 FU FEW040
FM161000 28005KT CAVOK
FM161500 VRB03KT 9999 SCT015
FM170200 32013KT 9999 FEW040